Time;durP1;ratioP1;P1;durP2;ratioP2;P2;SDS_P1;SDS_P2;PMS_P1;PMS_P2;Temp;Humidity;BMP_temperature;BMP_pressure;BME280_temperature;BME280_humidity;BME280_pressure;Samples;Min_cycle;Max_cycle;Signal;HPM_P1;HPM_P2
2021/07/30 00:02:06;;;;;;;;;;;;;;;17.92;100.00;98830.60;1790138;80;21150;-70
2021/07/30 00:04:33;;;;;;;;;;;;;;;17.93;100.00;98825.43;1790390;78;20134;-70
2021/07/30 00:07:01;;;;;;;;;;;;;;;17.94;100.00;98824.86;1790209;80;20114;-70
2021/07/30 00:09:28;;;;;;;;;;;;;;;17.93;100.00;98826.78;1790105;80;20122;-69
2021/07/30 00:11:54;;;;;;;;;;;;;;;17.90;100.00;98827.41;1790281;80;20118;-69
2021/07/30 00:14:21;;;;;;;;;;;;;;;17.87;100.00;98821.27;1789994;80;22336;-70
2021/07/30 00:16:47;;;;;;;;;;;;;;;17.85;100.00;98824.06;1789862;80;20122;-71
2021/07/30 00:19:14;;;;;;;;;;;;;;;17.83;100.00;98831.16;1790237;80;20106;-71
2021/07/30 00:21:41;;;;;;;;;;;;;;;17.82;100.00;98827.42;1790318;79;20142;-70
2021/07/30 00:24:07;;;;;;;;;;;;;;;17.79;100.00;98826.11;1790189;80;20397;-70
2021/07/30 00:26:33;;;;;;;;;;;;;;;17.75;100.00;98827.86;1790109;78;21142;-70
2021/07/30 00:29:00;;;;;;;;;;;;;;;17.72;100.00;98826.58;1790090;80;20111;-70
2021/07/30 00:31:27;;;;;;;;;;;;;;;17.71;100.00;98823.64;1790276;80;20151;-69
2021/07/30 00:33:53;;;;;;;;;;;;;;;17.70;100.00;98830.73;1790064;79;20537;-70
2021/07/30 00:36:19;;;;;;;;;;;;;;;17.68;100.00;98826.17;1790137;80;20099;-69
2021/07/30 00:38:47;;;;;;;;;;;;;;;17.62;100.00;98825.55;1790279;79;21130;-69
2021/07/30 00:41:13;;;;;;;;;;;;;;;17.61;100.00;98824.48;1790152;80;20106;-69
2021/07/30 00:43:41;;;;;;;;;;;;;;;17.58;100.00;98823.21;1790180;79;20094;-70
2021/07/30 00:46:07;;;;;;;;;;;;;;;17.55;100.00;98821.94;1789891;80;20130;-70
2021/07/30 00:48:35;;;;;;;;;;;;;;;17.53;100.00;98822.02;1790096;80;20449;-69
2021/07/30 00:51:02;;;;;;;;;;;;;;;17.51;100.00;98818.25;1768065;80;21092;-69
2021/07/30 00:53:29;;;;;;;;;;;;;;;17.48;100.00;98818.89;1790167;80;20154;-69
2021/07/30 00:55:59;;;;;;;;;;;;;;;17.46;100.00;98814.33;1789970;80;20134;-69
2021/07/30 00:58:29;;;;;;;;;;;;;;;17.44;100.00;98819.84;1790367;80;20115;-70
2021/07/30 01:00:56;;;;;;;;;;;;;;;17.41;100.00;98813.70;1789837;80;20142;-69
2021/07/30 01:03:23;;;;;;;;;;;;;;;17.41;100.00;98813.13;1790257;80;21744;-69
2021/07/30 01:05:51;;;;;;;;;;;;;;;17.39;100.00;98814.00;1786308;78;20107;-72
2021/07/30 01:08:18;;;;;;;;;;;;;;;17.37;100.00;98813.55;1781650;79;20147;-67
2021/07/30 01:10:45;;;;;;;;;;;;;;;17.36;100.00;98814.64;1753158;80;20130;-69
2021/07/30 01:13:12;;;;;;;;;;;;;;;17.40;100.00;98813.47;1781569;80;20178;-68
2021/07/30 01:15:40;;;;;;;;;;;;;;;17.40;100.00;98810.19;1781102;80;20111;-69
2021/07/30 01:18:07;;;;;;;;;;;;;;;17.41;100.00;98815.05;1781360;80;20458;-68
2021/07/30 01:20:33;;;;;;;;;;;;;;;17.39;100.00;98815.36;1781366;80;20167;-69
2021/07/30 01:22:59;;;;;;;;;;;;;;;17.39;100.00;98811.86;1781426;79;20501;-69
2021/07/30 01:25:27;;;;;;;;;;;;;;;17.43;100.00;98819.05;1781370;80;20107;-68
2021/07/30 01:27:55;;;;;;;;;;;;;;;17.43;100.00;98809.55;1781521;80;21150;-67
2021/07/30 01:30:23;;;;;;;;;;;;;;;17.53;100.00;98805.73;1781222;80;20119;-66
2021/07/30 01:32:50;;;;;;;;;;;;;;;17.59;100.00;98807.19;1781425;80;20115;-70
2021/07/30 01:35:16;;;;;;;;;;;;;;;17.67;100.00;98812.37;1781321;80;20119;-69
2021/07/30 01:37:42;;;;;;;;;;;;;;;17.66;100.00;98814.27;1781496;80;20130;-68
2021/07/30 01:40:10;;;;;;;;;;;;;;;17.61;100.00;98805.50;1781070;80;21115;-69
2021/07/30 01:42:39;;;;;;;;;;;;;;;17.57;100.00;98809.42;1781055;79;20174;-68
2021/07/30 01:45:07;;;;;;;;;;;;;;;17.48;100.00;98799.91;1781241;79;20143;-67
2021/07/30 01:47:36;;;;;;;;;;;;;;;17.43;100.00;98797.34;1781350;79;20099;-67
2021/07/30 01:50:04;;;;;;;;;;;;;;;17.40;100.00;98793.12;1781311;80;20126;-69
2021/07/30 01:52:30;;;;;;;;;;;;;;;17.38;100.00;98799.42;1781603;80;21122;-68
2021/07/30 01:54:57;;;;;;;;;;;;;;;17.35;100.00;98798.14;1781203;80;20194;-69
2021/07/30 01:57:25;;;;;;;;;;;;;;;17.29;100.00;98793.41;1781653;80;20119;-69
2021/07/30 01:59:53;;;;;;;;;;;;;;;17.23;100.00;98793.89;1781322;80;20123;-69
2021/07/30 02:02:20;;;;;;;;;;;;;;;17.14;100.00;98798.72;1781415;80;20454;-68
2021/07/30 02:04:46;;;;;;;;;;;;;;;17.08;100.00;98791.86;1781299;80;21126;-69
2021/07/30 02:07:18;;;;;;;;;;;;;;;17.02;100.00;98793.67;1788590;79;20115;-68
2021/07/30 02:09:45;;;;;;;;;;;;;;;16.95;100.00;98793.33;1789740;79;20158;-70
2021/07/30 02:12:14;;;;;;;;;;;;;;;16.90;100.00;98798.33;1790241;80;20134;-68
2021/07/30 02:14:41;;;;;;;;;;;;;;;16.88;100.00;98799.22;1789728;80;20106;-68
2021/07/30 02:17:08;;;;;;;;;;;;;;;16.84;100.00;98799.59;1789972;80;21092;-69
2021/07/30 02:19:35;;;;;;;;;;;;;;;16.84;100.00;98803.66;1790178;80;20452;-68
2021/07/30 02:22:02;;;;;;;;;;;;;;;16.90;100.00;98806.46;1789941;79;20122;-68
2021/07/30 02:24:28;;;;;;;;;;;;;;;16.96;100.00;98803.07;1790077;80;20123;-67
2021/07/30 02:26:55;;;;;;;;;;;;;;;16.99;100.00;98805.14;1790043;80;20134;-70
2021/07/30 02:29:22;;;;;;;;;;;;;;;17.00;100.00;98806.73;1790018;80;21142;-68
2021/07/30 02:31:48;;;;;;;;;;;;;;;16.96;100.00;98807.94;1790001;80;20143;-69
2021/07/30 02:34:16;;;;;;;;;;;;;;;16.92;100.00;98813.16;1790038;80;20111;-68
2021/07/30 02:36:43;;;;;;;;;;;;;;;16.87;100.00;98816.02;1789938;79;20146;-68
2021/07/30 02:39:10;;;;;;;;;;;;;;;16.84;100.00;98813.15;1790169;80;20107;-69
2021/07/30 02:41:36;;;;;;;;;;;;;;;16.80;100.00;98811.61;1790037;80;21150;-68
2021/07/30 02:44:04;;;;;;;;;;;;;;;16.77;100.00;98816.27;1767949;80;20142;-68
2021/07/30 02:46:31;;;;;;;;;;;;;;;16.75;100.00;98817.13;1790065;80;20159;-69
2021/07/30 02:48:59;;;;;;;;;;;;;;;16.73;100.00;98819.35;1789989;80;20598;-69
2021/07/30 02:51:25;;;;;;;;;;;;;;;16.72;100.00;98814.50;1790007;80;20134;-68
2021/07/30 02:53:53;;;;;;;;;;;;;;;16.74;100.00;98817.47;1790059;80;21129;-66
2021/07/30 02:56:20;;;;;;;;;;;;;;;16.76;100.00;98819.31;1789959;79;20111;-68
2021/07/30 02:58:47;;;;;;;;;;;;;;;16.81;100.00;98819.20;1790169;80;20442;-69
2021/07/30 03:01:14;;;;;;;;;;;;;;;16.90;100.00;98816.77;1790010;80;20119;-69
2021/07/30 03:03:40;;;;;;;;;;;;;;;16.97;100.00;98816.30;1790032;80;20140;-70
2021/07/30 03:06:06;;;;;;;;;;;;;;;17.03;100.00;98818.33;1789830;79;21123;-68
2021/07/30 03:08:33;;;;;;;;;;;;;;;17.09;100.00;98819.77;1790180;80;20134;-69
2021/07/30 03:10:59;;;;;;;;;;;;;;;17.14;100.00;98820.97;1790091;80;20193;-69
2021/07/30 03:13:28;;;;;;;;;;;;;;;17.19;100.00;98822.18;1790226;79;37819;-70
2021/07/30 03:15:56;;;;;;;;;;;;;;;17.21;100.00;98821.31;1790031;80;20106;-69
2021/07/30 03:18:23;;;;;;;;;;;;;;;17.28;100.00;98828.44;1789871;79;21142;-70
2021/07/30 03:20:50;;;;;;;;;;;;;;;17.33;100.00;98830.99;1789945;80;20122;-70
2021/07/30 03:23:17;;;;;;;;;;;;;;;17.39;100.00;98838.98;1790390;80;20438;-69
2021/07/30 03:25:44;;;;;;;;;;;;;;;17.45;100.00;98833.66;1790107;80;20119;-70
2021/07/30 03:28:10;;;;;;;;;;;;;;;17.50;100.00;98836.22;1790045;80;20437;-68
2021/07/30 03:30:37;;;;;;;;;;;;;;;17.53;100.00;98840.44;1790113;80;21157;-67
2021/07/30 03:33:04;;;;;;;;;;;;;;;17.54;100.00;98836.63;1789983;80;20142;-67
2021/07/30 03:35:31;;;;;;;;;;;;;;;17.64;100.00;98852.34;1790321;79;20138;-70
2021/07/30 03:37:57;;;;;;;;;;;;;;;17.71;100.00;98848.59;1790352;80;20138;-64
2021/07/30 03:40:24;;;;;;;;;;;;;;;17.78;100.00;98852.46;1789927;80;20123;-68
2021/07/30 03:42:52;;;;;;;;;;;;;;;17.85;100.00;98853.35;1790338;80;21804;-68
2021/07/30 03:45:19;;;;;;;;;;;;;;;17.93;100.00;98858.54;1789873;79;20154;-68
2021/07/30 03:47:46;;;;;;;;;;;;;;;18.03;100.00;98857.42;1790156;79;20473;-67
2021/07/30 03:50:13;;;;;;;;;;;;;;;18.11;100.00;98853.92;1789918;80;20182;-68
2021/07/30 03:52:40;;;;;;;;;;;;;;;18.19;100.00;98856.62;1789988;80;20118;-68
2021/07/30 03:55:08;;;;;;;;;;;;;;;18.29;100.00;98865.56;1789864;79;21116;-71
2021/07/30 03:57:35;;;;;;;;;;;;;;;18.36;100.00;98868.59;1790211;80;20452;-68
2021/07/30 04:00:04;;;;;;;;;;;;;;;18.46;100.00;98876.41;1789790;79;20134;-71
2021/07/30 04:02:33;;;;;;;;;;;;;;;18.57;100.00;98868.70;1790350;79;20167;-68
2021/07/30 04:04:59;;;;;;;;;;;;;;;18.64;100.00;98868.47;1790007;80;20111;-69
2021/07/30 04:07:26;;;;;;;;;;;;;;;18.73;100.00;98873.86;1784112;78;21786;-69
2021/07/30 04:09:54;;;;;;;;;;;;;;;18.82;100.00;98877.39;1781339;80;20162;-68
2021/07/30 04:12:22;;;;;;;;;;;;;;;18.92;100.00;98877.59;1781333;80;20195;-67
2021/07/30 04:14:49;;;;;;;;;;;;;;;19.01;100.00;98883.81;1781314;79;20127;-69
2021/07/30 04:17:16;;;;;;;;;;;;;;;19.14;100.00;98886.07;1781613;80;20171;-66
2021/07/30 04:19:43;;;;;;;;;;;;;;;19.17;100.00;98888.13;1781270;80;21134;-68
2021/07/30 04:22:11;;;;;;;;;;;;;;;19.26;100.00;98898.42;1781269;79;20446;-70
2021/07/30 04:24:39;;;;;;;;;;;;;;;19.38;100.00;98892.28;1781413;80;20166;-69
2021/07/30 04:27:06;;;;;;;;;;;;;;;19.53;100.00;98891.49;1781716;80;20649;-67
2021/07/30 04:29:39;;;;;;;;;;;;;;;19.62;100.00;98893.58;1781307;80;20166;-67
2021/07/30 04:32:07;;;;;;;;;;;;;;;19.68;100.00;98889.58;1781562;80;21178;-67
2021/07/30 04:34:34;;;;;;;;;;;;;;;19.77;100.00;98890.33;1781256;79;20106;-67
2021/07/30 04:37:02;;;;;;;;;;;;;;;19.95;100.00;98899.73;1781397;80;20119;-68
2021/07/30 04:39:29;;;;;;;;;;;;;;;20.02;100.00;98901.36;1781502;80;20628;-67
2021/07/30 04:41:57;;;;;;;;;;;;;;;20.08;100.00;98900.02;1781628;80;20119;-71
2021/07/30 04:44:23;;;;;;;;;;;;;;;20.20;100.00;98904.16;1781297;79;21126;-69
2021/07/30 04:46:49;;;;;;;;;;;;;;;20.30;100.00;98897.51;1781163;79;20689;-69
2021/07/30 04:49:16;;;;;;;;;;;;;;;20.39;100.00;98903.69;1781234;79;20135;-66
2021/07/30 04:51:43;;;;;;;;;;;;;;;20.50;100.00;98898.61;1781536;80;20404;-67
2021/07/30 04:54:09;;;;;;;;;;;;;;;20.67;100.00;98900.39;1781237;80;20119;-70
2021/07/30 04:56:37;;;;;;;;;;;;;;;20.79;100.00;98899.64;1781524;80;21682;-69
2021/07/30 04:59:04;;;;;;;;;;;;;;;20.88;100.00;98903.86;1781341;79;20199;-68
2021/07/30 05:01:31;;;;;;;;;;;;;;;20.95;100.00;98897.28;1781215;79;20449;-69
2021/07/30 05:03:58;;;;;;;;;;;;;;;21.16;100.00;98894.45;1781155;79;20162;-68
2021/07/30 05:06:25;;;;;;;;;;;;;;;21.40;100.00;98897.80;1782558;79;20457;-69
2021/07/30 05:08:52;;;;;;;;;;;;;;;21.54;100.00;98898.03;1789788;80;21140;-68
2021/07/30 05:11:19;;;;;;;;;;;;;;;21.64;100.00;98907.12;1789954;80;20496;-70
2021/07/30 05:13:46;;;;;;;;;;;;;;;21.87;100.00;98905.25;1789889;80;20135;-70
2021/07/30 05:16:14;;;;;;;;;;;;;;;21.96;100.00;98904.56;1789741;80;20120;-70
2021/07/30 05:18:41;;;;;;;;;;;;;;;22.09;100.00;98910.20;1789882;80;20126;-69
2021/07/30 05:21:12;;;;;;;;;;;;;;;22.23;100.00;98915.33;1790225;80;21138;-69
2021/07/30 05:23:42;;;;;;;;;;;;;;;22.41;100.00;98906.25;1789798;80;20122;-69
2021/07/30 05:26:09;;;;;;;;;;;;;;;22.67;100.00;98907.95;1790048;79;20115;-69
2021/07/30 05:28:35;;;;;;;;;;;;;;;22.84;100.00;98917.78;1789822;80;20527;-69
2021/07/30 05:31:02;;;;;;;;;;;;;;;22.87;100.00;98912.17;1790123;80;20480;-70
2021/07/30 05:33:29;;;;;;;;;;;;;;;23.13;100.00;98913.08;1790013;80;21753;-69
2021/07/30 05:35:56;;;;;;;;;;;;;;;23.15;100.00;98919.00;1789928;79;20119;-70
2021/07/30 05:38:22;;;;;;;;;;;;;;;23.47;100.00;98921.69;1789816;80;20193;-69
2021/07/30 05:40:49;;;;;;;;;;;;;;;23.69;100.00;98922.44;1789918;80;20429;-70
2021/07/30 05:43:16;;;;;;;;;;;;;;;23.88;100.00;98922.27;1789763;80;20143;-70
2021/07/30 05:45:43;;;;;;;;;;;;;;;24.13;100.00;98925.55;1789955;80;21824;-71
2021/07/30 05:48:11;;;;;;;;;;;;;;;24.10;100.00;98920.78;1789756;80;20095;-70
2021/07/30 05:50:38;;;;;;;;;;;;;;;24.03;100.00;98928.27;1789859;80;20582;-73
2021/07/30 05:53:05;;;;;;;;;;;;;;;24.28;100.00;98922.55;1790016;80;20142;-70
2021/07/30 05:55:32;;;;;;;;;;;;;;;24.51;100.00;98933.02;1790098;80;20441;-69
2021/07/30 05:57:58;;;;;;;;;;;;;;;24.77;100.00;98937.05;1790182;80;21133;-68
2021/07/30 06:00:26;;;;;;;;;;;;;;;25.00;100.00;98935.69;1790017;80;20496;-68
2021/07/30 06:02:53;;;;;;;;;;;;;;;25.35;100.00;98936.11;1790038;80;20182;-71
2021/07/30 06:05:19;;;;;;;;;;;;;;;25.52;100.00;98934.22;1790067;79;20495;-69
2021/07/30 06:07:45;;;;;;;;;;;;;;;25.42;100.00;98937.59;1804760;79;20142;-70
2021/07/30 06:10:12;;;;;;;;;;;;;;;25.48;100.00;98940.81;1817922;78;21152;-70
2021/07/30 06:12:38;;;;;;;;;;;;;;;25.88;100.00;98944.41;1790465;79;20184;-69
2021/07/30 06:15:06;;;;;;;;;;;;;;;25.99;100.00;98947.30;1791156;79;20102;-71
2021/07/30 06:17:33;;;;;;;;;;;;;;;26.04;100.00;98942.29;1817948;78;20503;-69
2021/07/30 06:19:59;;;;;;;;;;;;;;;26.18;100.00;98943.05;1790233;78;20107;-69
2021/07/30 06:22:26;;;;;;;;;;;;;;;26.19;100.00;98945.20;1793690;79;21153;-71
2021/07/30 06:24:55;;;;;;;;;;;;;;;26.19;100.00;98941.89;1806004;79;20137;-71
2021/07/30 06:27:22;;;;;;;;;;;;;;;26.42;95.32;98949.24;1810898;79;20182;-69
2021/07/30 06:29:48;;;;;;;;;;;;;;;26.72;93.86;98938.20;1793240;79;20174;-71
2021/07/30 06:32:16;;;;;;;;;;;;;;;26.60;92.53;98950.26;1814635;79;20456;-70
2021/07/30 06:34:42;;;;;;;;;;;;;;;26.88;90.20;98942.13;1790671;79;21801;-69
2021/07/30 06:37:09;;;;;;;;;;;;;;;27.14;88.35;98946.11;1797620;79;20213;-72
2021/07/30 06:39:40;;;;;;;;;;;;;;;27.36;87.58;98941.61;1783718;80;20108;-69
2021/07/30 06:42:06;;;;;;;;;;;;;;;27.75;81.24;98940.30;1782948;80;20144;-68
2021/07/30 06:44:34;;;;;;;;;;;;;;;27.79;80.77;98942.50;1783728;80;20179;-71
2021/07/30 06:47:03;;;;;;;;;;;;;;;27.87;81.40;98944.73;1814250;79;21124;-70
2021/07/30 06:49:30;;;;;;;;;;;;;;;27.90;78.61;98946.12;1817794;79;20161;-70
2021/07/30 06:51:56;;;;;;;;;;;;;;;27.67;74.61;98951.08;1807993;79;20147;-70
2021/07/30 06:54:24;;;;;;;;;;;;;;;27.78;75.35;98941.71;1783910;80;20178;-68
2021/07/30 06:56:53;;;;;;;;;;;;;;;27.95;75.04;98950.48;1783751;80;20182;-69
2021/07/30 06:59:20;;;;;;;;;;;;;;;27.77;76.21;98947.59;1783887;80;21124;-72
2021/07/30 07:01:49;;;;;;;;;;;;;;;28.17;73.35;98949.45;1780297;79;20135;-69
2021/07/30 07:04:17;;;;;;;;;;;;;;;28.56;71.48;98950.20;1777622;80;20107;-70
2021/07/30 07:06:47;;;;;;;;;;;;;;;28.62;72.03;98950.63;1776896;79;20132;-70
2021/07/30 07:09:17;;;;;;;;;;;;;;;28.78;68.35;98950.27;1781116;80;20449;-70
2021/07/30 07:11:49;;;;;;;;;;;;;;;28.87;69.11;98949.91;1777129;80;21893;-72
2021/07/30 07:14:21;;;;;;;;;;;;;;;28.97;64.82;98948.53;1778620;79;20222;-72
2021/07/30 07:16:52;;;;;;;;;;;;;;;28.49;65.75;98945.25;1775659;80;20123;-71
2021/07/30 07:19:23;;;;;;;;;;;;;;;28.58;67.59;98948.44;1777843;79;20128;-70
2021/07/30 07:21:51;;;;;;;;;;;;;;;28.25;62.90;98950.27;1777473;80;20181;-70
2021/07/30 07:24:18;;;;;;;;;;;;;;;28.60;63.42;98955.75;1784029;79;21159;-73
2021/07/30 07:26:45;;;;;;;;;;;;;;;28.54;64.56;98955.91;1781658;79;20477;-72
2021/07/30 07:29:11;;;;;;;;;;;;;;;28.74;61.05;98957.17;1783041;79;20586;-71
2021/07/30 07:31:45;;;;;;;;;;;;;;;29.13;60.85;98966.16;1780964;79;20199;-71
2021/07/30 07:34:12;;;;;;;;;;;;;;;29.03;57.05;98959.98;1786084;79;20169;-74
2021/07/30 07:36:39;;;;;;;;;;;;;;;28.33;56.14;98967.05;1782740;79;21755;-73
2021/07/30 07:39:05;;;;;;;;;;;;;;;28.13;56.48;98964.40;1785245;80;20107;-71
2021/07/30 07:41:32;;;;;;;;;;;;;;;28.66;56.33;98965.22;1785071;80;20142;-70
2021/07/30 07:43:59;;;;;;;;;;;;;;;28.60;56.35;98966.20;1785022;80;20340;-74
2021/07/30 07:46:26;;;;;;;;;;;;;;;28.62;57.07;98961.67;1785161;80;20150;-72
2021/07/30 07:48:55;;;;;;;;;;;;;;;28.13;57.48;98967.94;1785190;80;21801;-72
2021/07/30 07:51:21;;;;;;;;;;;;;;;27.82;59.15;98970.70;1785005;80;20159;-72
2021/07/30 07:53:48;;;;;;;;;;;;;;;27.25;60.53;98966.10;1785265;80;20142;-76
2021/07/30 07:56:15;;;;;;;;;;;;;;;27.25;61.62;98962.76;1785164;80;20137;-75
2021/07/30 07:58:43;;;;;;;;;;;;;;;27.52;62.13;98968.89;1785265;80;20142;-70
2021/07/30 08:01:15;;;;;;;;;;;;;;;27.86;60.12;98965.23;1785552;80;21108;-71
2021/07/30 08:03:44;;;;;;;;;;;;;;;28.27;59.81;98970.56;1789142;79;20171;-72
2021/07/30 08:06:20;;;;;;;;;;;;;;;28.97;56.38;98971.23;1783638;80;20143;-71
2021/07/30 08:08:48;;;;;;;;;;;;;;;29.17;55.62;98971.08;1783639;80;20108;-71
2021/07/30 08:11:15;;;;;;;;;;;;;;;29.65;52.94;98976.23;1784003;80;20145;-71
2021/07/30 08:13:44;;;;;;;;;;;;;;;29.67;53.28;98975.28;1783710;80;20525;-67
2021/07/30 08:16:10;;;;;;;;;;;;;;;29.12;52.89;98967.33;1783953;80;20139;-67
2021/07/30 08:18:38;;;;;;;;;;;;;;;28.93;53.34;98974.56;1783448;80;20259;-62
2021/07/30 08:21:07;;;;;;;;;;;;;;;28.63;55.61;98970.15;1783668;80;20430;-67
2021/07/30 08:23:34;;;;;;;;;;;;;;;28.79;55.88;98970.60;1783746;80;20188;-67
2021/07/30 08:26:00;;;;;;;;;;;;;;;29.53;55.93;98978.02;1783870;80;21116;-67
2021/07/30 08:28:27;;;;;;;;;;;;;;;29.76;53.07;98983.16;1783609;80;20604;-66
2021/07/30 08:30:54;;;;;;;;;;;;;;;29.51;51.93;98976.23;1783799;80;20135;-68
2021/07/30 08:33:20;;;;;;;;;;;;;;;28.73;53.50;98982.41;1783619;80;20139;-65
2021/07/30 08:39:06;;;;;;;;;;;;;;;28.12;54.92;98966.94;1722472;83;20121;-65
2021/07/30 08:49:10;;;;;;;;;;;;;;;28.66;53.27;98972.13;1692612;84;20463;-71
2021/07/30 08:51:41;;;;;;;;;;;;;;;27.83;55.45;98970.92;1679628;84;20456;-70
2021/07/30 08:54:08;;;;;;;;;;;;;;;28.33;54.27;98968.43;1703500;82;21954;-74
2021/07/30 08:56:38;;;;;;;;;;;;;;;28.53;54.94;98954.34;1702719;84;20655;-74
2021/07/30 08:59:07;;;;;;;;;;;;;;;28.75;54.37;98964.87;1703599;84;20167;-72
2021/07/30 09:01:36;;;;;;;;;;;;;;;29.28;54.07;98963.60;1704646;84;20110;-73
2021/07/30 09:04:04;;;;;;;;;;;;;;;29.41;50.88;98980.58;1704612;84;20444;-71
2021/07/30 09:06:30;;;;;;;;;;;;;;;29.08;51.91;98970.70;1704569;84;21135;-70
2021/07/30 09:09:07;;;;;;;;;;;;;;;28.88;50.85;98966.66;1714600;82;20183;-73
2021/07/30 09:11:37;;;;;;;;;;;;;;;28.50;53.63;98961.44;1725366;82;20173;-71
2021/07/30 09:14:06;;;;;;;;;;;;;;;28.68;52.99;98971.74;1732929;82;20179;-68
2021/07/30 09:16:49;;;;;;;;;;;;;;;28.88;52.56;98969.42;1760890;80;20175;-68
2021/07/30 09:19:16;;;;;;;;;;;;;;;29.00;52.91;98960.17;1778173;80;21068;-73
2021/07/30 09:21:43;;;;;;;;;;;;;;;29.27;52.46;98963.39;1778672;80;20139;-70
2021/07/30 09:24:13;;;;;;;;;;;;;;;29.49;51.62;98959.25;1756631;80;20127;-71
2021/07/30 09:26:46;;;;;;;;;;;;;;;29.12;51.29;98959.64;1747010;81;20182;-72
2021/07/30 09:29:19;;;;;;;;;;;;;;;28.28;51.84;98959.14;1747722;82;20529;-71
2021/07/30 09:32:01;;;;;;;;;;;;;;;28.06;53.01;98959.63;1739061;81;21120;-74
2021/07/30 09:34:32;;;;;;;;;;;;;;;28.58;52.24;98955.34;1729675;83;20145;-72
2021/07/30 09:37:00;;;;;;;;;;;;;;;29.26;51.29;98963.80;1729673;83;20126;-72
2021/07/30 09:39:37;;;;;;;;;;;;;;;29.26;49.41;98961.82;1729725;83;20119;-73
2021/07/30 09:42:05;;;;;;;;;;;;;;;29.41;49.76;98962.61;1730018;82;20099;-71
2021/07/30 09:44:53;;;;;;;;;;;;;;;29.79;47.55;98953.91;1729671;83;21777;-72
2021/07/30 09:47:24;;;;;;;;;;;;;;;29.92;47.42;98960.62;1768018;80;20207;-71
2021/07/30 09:49:53;;;;;;;;;;;;;;;30.27;47.98;98960.34;1779101;80;20120;-71
2021/07/30 09:52:25;;;;;;;;;;;;;;;30.05;46.50;98956.83;1779216;80;20186;-70
2021/07/30 09:55:03;;;;;;;;;;;;;;;29.47;49.75;98963.81;1778972;80;20180;-70
2021/07/30 09:57:33;;;;;;;;;;;;;;;29.06;48.91;98945.44;1779303;80;21865;-71
2021/07/30 10:00:04;;;;;;;;;;;;;;;29.51;48.89;98964.39;1777921;80;20465;-71
2021/07/30 10:02:35;;;;;;;;;;;;;;;29.46;48.11;98950.38;1779264;80;20121;-71
2021/07/30 10:05:07;;;;;;;;;;;;;;;29.39;47.89;98955.30;1778943;80;20101;-71
2021/07/30 10:07:36;;;;;;;;;;;;;;;29.49;46.40;98955.10;1779381;80;20191;-71
2021/07/30 10:12:39;;;;;;;;;;;;;;;29.91;46.61;98956.26;1772393;81;20341;-71
2021/07/30 10:15:08;;;;;;;;;;;;;;;29.87;45.50;98941.67;1750915;81;20222;-71
2021/07/30 10:17:36;;;;;;;;;;;;;;;29.48;46.62;98953.53;1742240;82;20091;-75
2021/07/30 10:20:08;;;;;;;;;;;;;;;29.81;44.36;98946.01;1711825;81;20132;-70
2021/07/30 10:22:58;;;;;;;;;;;;;;;29.73;45.40;98942.47;1741248;81;21142;-71
2021/07/30 10:25:36;;;;;;;;;;;;;;;30.02;45.21;98948.73;1736148;82;20173;-70
2021/07/30 10:28:13;;;;;;;;;;;;;;;30.18;43.22;98943.34;1741839;82;20106;-73
2021/07/30 10:31:05;;;;;;;;;;;;;;;30.35;42.19;98941.13;1736319;82;20808;-71
2021/07/30 10:33:38;;;;;;;;;;;;;;;30.25;42.19;98939.20;1748844;81;20502;-72
2021/07/30 10:36:12;;;;;;;;;;;;;;;30.73;42.40;98934.42;1771973;81;21193;-73
2021/07/30 10:38:39;;;;;;;;;;;;;;;30.24;42.71;98935.62;1772266;81;20468;-73
2021/07/30 10:41:10;;;;;;;;;;;;;;;30.17;40.91;98927.94;1752756;81;20085;-69
2021/07/30 10:44:02;;;;;;;;;;;;;;;29.55;42.74;98925.10;1771938;81;20165;-73
2021/07/30 10:46:29;;;;;;;;;;;;;;;29.74;42.76;98926.66;1772367;81;20408;-71
2021/07/30 10:48:57;;;;;;;;;;;;;;;29.79;39.89;98931.22;1772140;80;22129;-71
2021/07/30 10:51:27;;;;;;;;;;;;;;;29.97;38.38;98930.38;1771873;81;20156;-75
2021/07/30 10:53:59;;;;;;;;;;;;;;;29.33;39.80;98934.00;1756770;80;20195;-73
2021/07/30 10:56:32;;;;;;;;;;;;;;;29.89;39.78;98930.39;1729748;81;20533;-71
2021/07/30 10:59:03;;;;;;;;;;;;;;;30.30;38.69;98929.09;1735432;81;20160;-74
2021/07/30 11:01:41;;;;;;;;;;;;;;;30.22;38.41;98920.60;1733195;82;21102;-73
2021/07/30 11:04:09;;;;;;;;;;;;;;;29.86;39.13;98924.29;1742584;81;20186;-70
2021/07/30 11:06:43;;;;;;;;;;;;;;;29.84;40.25;98919.74;1741628;82;20118;-75
2021/07/30 11:09:16;;;;;;;;;;;;;;;30.15;39.77;98910.94;1759823;80;20164;-73
2021/07/30 11:11:56;;;;;;;;;;;;;;;29.84;39.58;98912.02;1774796;80;20133;-74
2021/07/30 11:14:28;;;;;;;;;;;;;;;30.17;39.00;98912.12;1777726;80;21214;-70
2021/07/30 11:17:03;;;;;;;;;;;;;;;29.90;38.46;98904.30;1776853;80;20325;-71
2021/07/30 11:19:39;;;;;;;;;;;;;;;30.02;40.04;98900.92;1776317;80;20151;-74
2021/07/30 11:22:13;;;;;;;;;;;;;;;30.58;38.28;98901.09;1775741;80;20172;-76
2021/07/30 11:24:43;;;;;;;;;;;;;;;30.15;37.84;98900.66;1781346;80;20513;-69
2021/07/30 11:27:10;;;;;;;;;;;;;;;30.23;38.62;98895.30;1781512;80;21222;-73
2021/07/30 11:29:37;;;;;;;;;;;;;;;30.74;37.34;98904.13;1781503;80;20706;-72
2021/07/30 11:32:07;;;;;;;;;;;;;;;31.23;35.12;98893.12;1752373;80;20120;-75
2021/07/30 11:34:37;;;;;;;;;;;;;;;31.06;34.41;98894.23;1770106;80;20254;-75
2021/07/30 11:37:10;;;;;;;;;;;;;;;30.79;35.18;98899.55;1757856;80;20492;-72
2021/07/30 11:39:45;;;;;;;;;;;;;;;30.23;36.58;98895.87;1726377;82;21092;-72
2021/07/30 11:42:29;;;;;;;;;;;;;;;30.49;35.73;98899.53;1753082;80;20099;-73
2021/07/30 11:45:04;;;;;;;;;;;;;;;30.68;34.45;98894.69;1751549;80;20102;-74
2021/07/30 11:47:32;;;;;;;;;;;;;;;30.58;36.08;98892.78;1755048;80;20773;-72
2021/07/30 11:50:12;;;;;;;;;;;;;;;30.66;36.59;98881.84;1759696;80;20129;-73
2021/07/30 11:55:20;;;;;;;;;;;;;;;29.99;36.65;98880.37;1746938;80;20079;-71
2021/07/30 11:57:52;;;;;;;;;;;;;;;30.11;38.51;98883.30;1751921;80;20205;-76
2021/07/30 12:00:29;;;;;;;;;;;;;;;29.99;39.00;98869.31;1752386;80;20438;-73
2021/07/30 12:02:57;;;;;;;;;;;;;;;30.06;38.35;98872.05;1756577;80;20096;-75
2021/07/30 12:05:35;;;;;;;;;;;;;;;30.12;37.58;98869.64;1752829;80;21759;-71
2021/07/30 12:08:01;;;;;;;;;;;;;;;29.84;38.18;98869.14;1749144;80;20086;-73
2021/07/30 12:10:28;;;;;;;;;;;;;;;29.64;38.50;98868.78;1750364;81;20126;-69
2021/07/30 12:13:00;;;;;;;;;;;;;;;29.52;39.12;98872.78;1751546;81;20152;-74
2021/07/30 12:15:26;;;;;;;;;;;;;;;29.31;40.08;98862.53;1754638;80;20247;-74
2021/07/30 12:18:00;;;;;;;;;;;;;;;29.25;40.81;98867.67;1755897;81;21895;-76
2021/07/30 12:20:35;;;;;;;;;;;;;;;29.12;41.90;98876.16;1750779;81;20123;-73
2021/07/30 12:23:09;;;;;;;;;;;;;;;29.10;41.97;98872.99;1755827;81;20618;-72
2021/07/30 12:25:49;;;;;;;;;;;;;;;29.31;41.75;98862.53;1761415;81;20572;-75
2021/07/30 12:28:16;;;;;;;;;;;;;;;29.53;41.50;98863.28;1760914;81;20495;-72
2021/07/30 12:30:46;;;;;;;;;;;;;;;29.82;41.41;98864.63;1761729;81;21115;-75
2021/07/30 12:33:25;;;;;;;;;;;;;;;29.74;41.09;98864.44;1761091;81;20107;-74
2021/07/30 12:36:09;;;;;;;;;;;;;;;29.87;40.26;98862.83;1761439;81;20198;-74
2021/07/30 12:39:01;;;;;;;;;;;;;;;29.96;40.10;98852.70;1762883;80;20116;-74
2021/07/30 12:41:30;;;;;;;;;;;;;;;30.24;40.47;98847.05;1785331;80;20434;-74
2021/07/30 12:44:16;;;;;;;;;;;;;;;30.65;40.19;98845.63;1785301;80;21189;-73
2021/07/30 12:46:51;;;;;;;;;;;;;;;30.97;38.55;98842.67;1785478;80;20246;-76
2021/07/30 12:49:33;;;;;;;;;;;;;;;30.40;38.70;98843.03;1785275;80;20566;-73
2021/07/30 12:52:12;;;;;;;;;;;;;;;30.24;39.01;98831.05;1785571;80;20155;-74
2021/07/30 12:54:39;;;;;;;;;;;;;;;30.15;39.80;98824.55;1785410;80;20498;-72
2021/07/30 12:57:07;;;;;;;;;;;;;;;30.22;40.64;98829.27;1785510;80;21229;-72
2021/07/30 13:00:07;;;;;;;;;;;;;;;30.36;39.35;98829.83;1785064;80;20155;-75
2021/07/30 13:02:29;;;;;;;;;;;;;;;29.92;39.97;98822.30;1783892;80;20148;-73
2021/07/30 13:04:56;;;;;;;;;;;;;;;30.03;40.58;98816.11;1766803;80;20149;-73
2021/07/30 13:07:26;;;;;;;;;;;;;;;30.15;40.28;98814.88;1722923;83;20097;-71